createdAt,value
2018-05-31T00:01:00.163Z,3.90
2018-05-31T00:03:28.229Z,2.27
2018-05-31T00:05:56.566Z,2.67
2018-05-31T00:08:24.758Z,2.13
2018-05-31T00:10:53.161Z,1.93
2018-05-31T00:13:20.766Z,2.60
2018-05-31T00:15:49.004Z,2.20
2018-05-31T00:18:16.631Z,2.17
2018-05-31T00:20:44.237Z,1.90
2018-05-31T00:23:12.292Z,3.47
2018-05-31T00:25:40.415Z,2.30
2018-05-31T00:28:08.764Z,3.40
2018-05-31T00:30:36.376Z,2.10
2018-05-31T00:33:04.730Z,4.23
2018-05-31T00:35:32.759Z,2.57
2018-05-31T00:38:00.459Z,3.50
2018-05-31T00:40:28.127Z,2.17
2018-05-31T00:42:56.448Z,2.53
2018-05-31T00:45:24.067Z,1.90
2018-05-31T00:47:53.209Z,3.27
2018-05-31T00:50:20.808Z,1.77
2018-05-31T00:52:48.395Z,2.23
2018-05-31T00:55:16.241Z,2.33
2018-05-31T00:57:43.852Z,1.93
2018-05-31T01:00:11.461Z,2.40
2018-05-31T01:02:39.046Z,2.20
2018-05-31T01:05:07.464Z,2.20
2018-05-31T01:07:35.024Z,3.07
2018-05-31T01:10:02.872Z,2.53
2018-05-31T01:12:30.444Z,2.90
2018-05-31T01:14:58.413Z,2.17
2018-05-31T01:17:25.972Z,2.77
2018-05-31T01:19:54.292Z,2.40
2018-05-31T01:22:21.890Z,2.77
2018-05-31T01:24:49.799Z,2.20
2018-05-31T01:27:17.937Z,2.70
2018-05-31T01:29:46.661Z,2.30
2018-05-31T01:32:14.254Z,2.67
2018-05-31T01:34:41.827Z,2.40
2018-05-31T01:37:09.821Z,2.57
2018-05-31T01:39:37.371Z,3.17
2018-05-31T01:42:05.488Z,2.53
2018-05-31T01:44:33.756Z,2.70
2018-05-31T01:47:01.316Z,2.50
2018-05-31T01:49:28.875Z,2.83
2018-05-31T01:51:56.467Z,2.87
2018-05-31T01:54:24.108Z,2.90
2018-05-31T01:56:51.807Z,2.30
2018-05-31T01:59:19.464Z,2.90
2018-05-31T02:01:47.313Z,2.30
2018-05-31T02:04:14.887Z,2.40
2018-05-31T02:06:42.975Z,2.20
2018-05-31T02:09:11.309Z,2.37
2018-05-31T02:11:38.856Z,2.43
2018-05-31T02:14:06.452Z,2.77
2018-05-31T02:16:34.531Z,3.43
2018-05-31T02:19:02.845Z,2.60
2018-05-31T02:21:30.403Z,2.93
2018-05-31T02:23:59.003Z,2.10
2018-05-31T02:26:27.234Z,4.17
2018-05-31T02:28:56.310Z,1.90
2018-05-31T02:31:23.872Z,3.03
2018-05-31T02:33:51.440Z,2.20
2018-05-31T02:36:20.062Z,4.10
2018-05-31T02:38:47.751Z,2.37
2018-05-31T02:41:15.407Z,2.57
2018-05-31T02:43:43.428Z,2.40
2018-05-31T02:46:11.020Z,2.30
2018-05-31T02:48:39.320Z,2.47
2018-05-31T02:51:06.880Z,2.63
2018-05-31T02:53:34.543Z,3.63
2018-05-31T02:56:02.155Z,2.67
2018-05-31T02:58:29.774Z,2.37
2018-05-31T03:00:57.469Z,2.37
2018-05-31T03:03:25.320Z,2.40
2018-05-31T03:05:54.030Z,2.30
2018-05-31T03:08:21.624Z,2.47
2018-05-31T03:10:49.737Z,2.17
2018-05-31T03:13:17.456Z,2.20
2018-05-31T03:15:45.439Z,2.70
2018-05-31T03:18:13.036Z,2.20
2018-05-31T03:20:40.603Z,2.50
2018-05-31T03:23:08.964Z,1.90
2018-05-31T03:25:37.193Z,2.60
2018-05-31T03:28:05.625Z,1.70
2018-05-31T03:30:33.207Z,2.23
2018-05-31T03:33:00.778Z,2.17
2018-05-31T03:35:28.734Z,2.27
2018-05-31T03:37:56.283Z,1.93
2018-05-31T03:40:24.065Z,2.00
2018-05-31T03:42:52.932Z,2.47
2018-05-31T03:45:20.564Z,2.23
2018-05-31T03:47:48.142Z,3.20
2018-05-31T03:50:15.793Z,1.90
2018-05-31T03:52:43.432Z,2.50
2018-05-31T03:55:11.001Z,2.43
2018-05-31T03:57:38.608Z,2.73
2018-05-31T04:00:06.225Z,2.13
2018-05-31T04:02:33.800Z,2.70
2018-05-31T04:05:02.295Z,2.60
2018-05-31T04:07:30.377Z,2.83
2018-05-31T04:09:58.562Z,2.20
2018-05-31T04:12:26.926Z,2.73
2018-05-31T04:14:55.344Z,2.77
2018-05-31T04:17:23.011Z,1.93
2018-05-31T04:19:50.622Z,2.50
2018-05-31T04:22:18.184Z,2.80
2018-05-31T04:24:46.689Z,2.80
2018-05-31T04:27:14.862Z,3.00
2018-05-31T04:29:42.991Z,2.80
2018-05-31T04:32:10.560Z,3.90
2018-05-31T04:34:38.156Z,4.07
2018-05-31T04:37:06.387Z,4.50
2018-05-31T04:39:33.973Z,4.77
2018-05-31T04:42:01.780Z,6.17
2018-05-31T04:44:30.326Z,4.80
2018-05-31T04:46:58.206Z,5.97
2018-05-31T04:49:25.927Z,5.60
2018-05-31T04:51:53.716Z,5.37
2018-05-31T04:54:21.271Z,5.83
2018-05-31T04:56:49.628Z,6.20
2018-05-31T04:59:18.140Z,6.17
2018-05-31T05:01:46.928Z,5.03
2018-05-31T05:04:14.536Z,5.97
2018-05-31T05:06:43.116Z,4.40
2018-05-31T05:09:11.665Z,5.10
2018-05-31T05:11:39.975Z,5.07
2018-05-31T05:14:07.689Z,5.97
2018-05-31T05:16:35.995Z,4.60
2018-05-31T05:19:03.565Z,4.33
2018-05-31T05:21:31.196Z,4.60
2018-05-31T05:23:59.975Z,3.93
2018-05-31T05:26:28.129Z,3.43
2018-05-31T05:28:56.377Z,3.77
2018-05-31T05:31:24.084Z,3.10
2018-05-31T05:33:51.750Z,2.83
2018-05-31T05:36:20.103Z,2.40
2018-05-31T05:38:47.913Z,2.20
2018-05-31T05:41:15.703Z,2.47
2018-05-31T05:43:43.932Z,2.40
2018-05-31T05:46:11.699Z,2.67
2018-05-31T05:48:39.285Z,2.27
2018-05-31T05:51:06.922Z,2.80
2018-05-31T05:53:34.527Z,2.53
2018-05-31T05:56:02.193Z,3.00
2018-05-31T05:58:29.784Z,2.60
2018-05-31T06:00:57.503Z,2.33
2018-05-31T06:03:25.130Z,2.27
2018-05-31T06:05:53.467Z,2.10
2018-05-31T06:08:22.046Z,2.37
2018-05-31T06:10:50.176Z,1.67
2018-05-31T06:13:17.918Z,2.17
2018-05-31T06:15:46.169Z,2.23
2018-05-31T06:18:13.735Z,1.87
2018-05-31T06:20:41.324Z,1.60
2018-05-31T06:23:09.746Z,2.20
2018-05-31T06:25:38.195Z,1.50
2018-05-31T06:28:06.639Z,2.50
2018-05-31T06:30:34.208Z,1.63
2018-05-31T06:33:01.799Z,1.90
2018-05-31T06:35:29.954Z,1.70
2018-05-31T06:37:57.528Z,1.93
2018-05-31T06:40:25.133Z,1.83
2018-05-31T06:42:52.884Z,1.50
2018-05-31T06:45:20.480Z,1.93
2018-05-31T06:47:48.137Z,1.80
2018-05-31T06:50:15.970Z,1.93
2018-05-31T06:52:43.506Z,1.57
2018-05-31T06:55:11.072Z,2.97
2018-05-31T06:57:38.689Z,1.37
2018-05-31T07:00:06.490Z,2.70
2018-05-31T07:02:34.071Z,1.60
2018-05-31T07:05:02.729Z,2.30
2018-05-31T07:07:30.966Z,1.70
2018-05-31T07:09:59.279Z,1.90
2018-05-31T07:12:26.860Z,1.73
2018-05-31T07:14:55.363Z,1.80
2018-05-31T07:17:23.076Z,1.70
2018-05-31T07:19:50.643Z,1.53
2018-05-31T07:22:18.246Z,1.70
2018-05-31T07:24:47.164Z,1.57
2018-05-31T07:27:15.660Z,1.90
2018-05-31T07:29:43.619Z,1.67
2018-05-31T07:32:11.167Z,1.70
2018-05-31T07:34:38.712Z,1.57
2018-05-31T07:37:06.812Z,2.20
2018-05-31T07:39:34.354Z,1.27
2018-05-31T07:42:01.913Z,1.47
2018-05-31T07:44:29.484Z,1.27
2018-05-31T07:46:57.079Z,1.63
2018-05-31T07:49:24.694Z,1.50
2018-05-31T07:51:52.338Z,1.47
2018-05-31T07:54:19.957Z,1.33
2018-05-31T07:56:47.839Z,1.20
2018-05-31T07:59:15.544Z,1.73
2018-05-31T08:01:43.468Z,1.40
2018-05-31T08:04:11.992Z,1.20
2018-05-31T08:06:40.412Z,1.30
2018-05-31T08:09:08.027Z,1.10
2018-05-31T08:11:36.323Z,1.87
2018-05-31T08:14:03.917Z,1.37
2018-05-31T08:16:32.163Z,2.00
2018-05-31T08:18:59.724Z,1.10
2018-05-31T08:21:27.279Z,2.20
2018-05-31T08:23:55.558Z,1.20
2018-05-31T08:26:24.073Z,1.90
2018-05-31T08:28:52.485Z,1.30
2018-05-31T08:31:20.125Z,1.73
2018-05-31T08:33:47.896Z,1.13
2018-05-31T08:36:16.409Z,1.40
2018-05-31T08:38:44.004Z,1.20
2018-05-31T08:41:11.608Z,1.57
2018-05-31T08:43:39.190Z,1.60
2018-05-31T08:46:06.741Z,1.50
2018-05-31T08:48:34.303Z,1.70
2018-05-31T08:51:01.932Z,1.70
2018-05-31T08:53:30.398Z,1.70
2018-05-31T08:55:57.958Z,2.50
2018-05-31T08:58:25.560Z,1.47
2018-05-31T09:00:54.150Z,1.77
2018-05-31T09:03:21.709Z,1.00
2018-05-31T09:05:50.168Z,2.80
2018-05-31T09:08:17.788Z,1.50
2018-05-31T09:10:46.642Z,1.57
2018-05-31T09:13:14.209Z,1.77
2018-05-31T09:15:45.465Z,1.40
2018-05-31T09:18:13.104Z,1.40
2018-05-31T09:20:40.882Z,2.17
2018-05-31T09:23:09.144Z,1.70
2018-05-31T09:25:37.847Z,1.50
2018-05-31T09:28:06.288Z,1.83
2018-05-31T09:30:33.882Z,1.40
2018-05-31T09:33:01.455Z,1.47
2018-05-31T09:35:30.495Z,1.40
2018-05-31T09:37:58.103Z,1.77
2018-05-31T09:40:25.652Z,1.50
2018-05-31T09:42:53.465Z,1.93
2018-05-31T09:45:21.023Z,1.33
2018-05-31T09:47:48.621Z,1.30
2018-05-31T09:50:16.373Z,1.30
2018-05-31T09:52:44.321Z,2.43
2018-05-31T09:55:11.887Z,0.90
2018-05-31T09:57:39.506Z,1.53
2018-05-31T10:00:07.986Z,1.80
2018-05-31T10:02:35.557Z,1.67
2018-05-31T10:05:03.904Z,1.93
2018-05-31T10:07:31.974Z,1.23
2018-05-31T10:10:00.309Z,1.53
2018-05-31T10:12:27.876Z,1.63
2018-05-31T10:14:55.923Z,2.43
2018-05-31T10:17:23.591Z,1.23
2018-05-31T10:19:51.184Z,1.90
2018-05-31T10:22:18.786Z,1.20
2018-05-31T10:24:47.405Z,2.30
2018-05-31T10:27:15.940Z,1.40
2018-05-31T10:29:44.219Z,1.80
2018-05-31T10:32:11.757Z,1.40
2018-05-31T10:34:39.338Z,1.63
2018-05-31T10:37:07.565Z,1.97
2018-05-31T10:39:35.124Z,1.40
2018-05-31T10:42:02.695Z,1.77
2018-05-31T10:44:30.285Z,1.63
2018-05-31T10:46:57.844Z,2.27
2018-05-31T10:49:25.410Z,1.87
2018-05-31T10:51:53.368Z,1.80
2018-05-31T10:54:20.927Z,1.70
2018-05-31T10:56:49.215Z,1.50
2018-05-31T10:59:16.853Z,1.67
2018-05-31T11:01:44.412Z,1.30
2018-05-31T11:04:12.019Z,1.70
2018-05-31T11:06:40.467Z,1.47
2018-05-31T11:09:08.066Z,1.40
2018-05-31T11:11:36.586Z,1.83
2018-05-31T11:14:04.176Z,1.70
2018-05-31T11:16:32.359Z,1.97
2018-05-31T11:18:59.931Z,1.40
2018-05-31T11:21:27.487Z,1.60
2018-05-31T11:23:55.692Z,1.47
2018-05-31T11:26:24.834Z,1.50
2018-05-31T11:28:53.309Z,1.20
2018-05-31T11:31:20.881Z,1.60
2018-05-31T11:33:48.443Z,1.30
2018-05-31T11:36:16.750Z,1.47
2018-05-31T11:38:44.353Z,1.60
2018-05-31T11:41:11.904Z,1.00
2018-05-31T11:43:40.250Z,1.73
2018-05-31T11:46:07.842Z,1.20
2018-05-31T11:48:35.416Z,1.20
2018-05-31T11:51:02.995Z,1.03
2018-05-31T11:53:31.069Z,1.13
2018-05-31T11:55:58.610Z,1.37
2018-05-31T11:58:26.401Z,1.27
2018-05-31T12:00:54.079Z,1.40
2018-05-31T12:03:21.665Z,1.03
2018-05-31T12:05:50.092Z,1.20
2018-05-31T12:08:17.914Z,1.20
2018-05-31T12:10:46.473Z,1.40
2018-05-31T12:13:14.032Z,1.00
2018-05-31T12:15:42.367Z,1.23
2018-05-31T12:18:09.920Z,2.30
2018-05-31T12:20:37.471Z,0.97
2018-05-31T12:23:05.909Z,1.17
2018-05-31T12:25:34.115Z,1.20
2018-05-31T12:28:02.557Z,1.20
2018-05-31T12:30:30.117Z,1.20
2018-05-31T12:32:57.681Z,1.13
2018-05-31T12:35:25.262Z,1.23
2018-05-31T12:37:53.055Z,1.00
2018-05-31T12:40:21.395Z,1.50
2018-05-31T12:42:49.002Z,1.30
2018-05-31T12:45:16.766Z,1.53
2018-05-31T12:47:44.342Z,0.93
2018-05-31T12:50:11.914Z,2.43
2018-05-31T12:52:40.128Z,1.10
2018-05-31T12:55:07.845Z,1.43
2018-05-31T12:57:35.412Z,1.20
2018-05-31T13:00:03.432Z,2.10
2018-05-31T13:02:30.967Z,1.20
2018-05-31T13:04:59.368Z,1.30
2018-05-31T13:07:27.764Z,1.13
2018-05-31T13:09:55.750Z,0.93
2018-05-31T13:12:23.564Z,1.40
2018-05-31T13:14:51.954Z,1.10
2018-05-31T13:17:19.513Z,1.40
2018-05-31T13:19:47.151Z,0.80
2018-05-31T13:22:14.776Z,1.23
2018-05-31T13:24:43.243Z,1.37
2018-05-31T13:27:11.424Z,1.60
2018-05-31T13:29:39.683Z,1.10
2018-05-31T13:32:07.381Z,2.50
2018-05-31T13:34:34.963Z,1.20
2018-05-31T13:37:02.669Z,1.47
2018-05-31T13:39:30.925Z,1.30
2018-05-31T13:41:58.512Z,1.20
2018-05-31T13:44:26.050Z,1.20
2018-05-31T13:46:53.829Z,1.53
2018-05-31T13:49:22.028Z,1.40
2018-05-31T13:51:50.182Z,1.20
2018-05-31T13:54:18.267Z,1.40
2018-05-31T13:56:45.850Z,1.10
2018-05-31T13:59:13.455Z,2.30
2018-05-31T14:01:41.008Z,0.90
2018-05-31T14:04:08.572Z,1.60
2018-05-31T14:06:36.738Z,1.37
2018-05-31T14:09:06.249Z,2.37
2018-05-31T14:11:34.318Z,1.00
2018-05-31T14:14:01.905Z,1.40
2018-05-31T14:16:30.108Z,1.10
2018-05-31T14:18:57.747Z,1.43
2018-05-31T14:21:25.332Z,1.17
2018-05-31T14:23:54.384Z,0.93
2018-05-31T14:26:22.567Z,1.23
2018-05-31T14:28:50.695Z,0.80
2018-05-31T14:31:18.285Z,1.37
2018-05-31T14:33:46.174Z,1.00
2018-05-31T14:36:13.741Z,1.73
2018-05-31T14:38:41.287Z,0.93
2018-05-31T14:41:09.359Z,1.50
2018-05-31T14:43:36.934Z,0.90
2018-05-31T14:46:05.603Z,1.80
2018-05-31T14:48:33.139Z,0.87
2018-05-31T14:51:00.704Z,1.30
2018-05-31T14:53:28.805Z,1.17
2018-05-31T14:55:56.412Z,1.30
2018-05-31T14:58:24.016Z,1.33
2018-05-31T15:00:51.592Z,1.20
2018-05-31T15:03:19.170Z,1.53
2018-05-31T15:05:48.130Z,1.10
2018-05-31T15:08:16.700Z,1.30
2018-05-31T15:10:44.683Z,1.37
2018-05-31T15:13:12.268Z,1.10
2018-05-31T15:15:40.226Z,1.30
2018-05-31T15:18:07.787Z,1.10
2018-05-31T15:20:35.359Z,2.83
2018-05-31T15:23:03.566Z,1.33
2018-05-31T15:25:31.120Z,1.63
2018-05-31T15:28:00.395Z,1.13
2018-05-31T15:30:27.958Z,1.17
2018-05-31T15:32:55.507Z,1.67
2018-05-31T15:35:23.315Z,1.17
2018-05-31T15:37:51.216Z,1.50
2018-05-31T15:40:19.630Z,1.20
2018-05-31T15:42:47.466Z,2.13
2018-05-31T15:45:16.667Z,1.17
2018-05-31T15:47:44.241Z,1.93
2018-05-31T15:50:11.804Z,1.33
2018-05-31T15:52:39.831Z,1.63
2018-05-31T15:55:07.372Z,1.20
2018-05-31T15:57:35.080Z,1.50
2018-05-31T16:00:02.770Z,1.10
2018-05-31T16:02:30.565Z,1.90
2018-05-31T16:04:58.704Z,1.27
2018-05-31T16:07:26.963Z,2.00
2018-05-31T16:09:55.215Z,1.20
2018-05-31T16:12:22.960Z,1.47
2018-05-31T16:14:51.185Z,1.33
2018-05-31T16:17:18.906Z,1.10
2018-05-31T16:19:47.007Z,1.60
2018-05-31T16:22:14.581Z,1.20
2018-05-31T16:24:42.883Z,1.73
2018-05-31T16:27:10.929Z,1.30
2018-05-31T16:29:39.054Z,2.30
2018-05-31T16:32:06.607Z,1.30
2018-05-31T16:34:34.263Z,1.40
2018-05-31T16:37:01.824Z,1.23
2018-05-31T16:39:29.964Z,1.40
2018-05-31T16:41:57.550Z,1.20
2018-05-31T16:44:25.152Z,1.40
2018-05-31T16:46:52.853Z,1.50
2018-05-31T16:49:20.540Z,1.40
2018-05-31T16:51:48.811Z,1.63
2018-05-31T16:54:17.279Z,1.40
2018-05-31T16:56:44.828Z,1.93
2018-05-31T16:59:12.467Z,1.17
2018-05-31T17:01:39.978Z,1.73
2018-05-31T17:04:07.526Z,1.30
2018-05-31T17:06:35.896Z,1.70
2018-05-31T17:09:03.508Z,2.23
2018-05-31T17:11:31.563Z,1.40
2018-05-31T17:13:59.776Z,1.80
2018-05-31T17:16:28.112Z,1.30
2018-05-31T17:18:55.698Z,1.60
2018-05-31T17:21:23.443Z,1.20
2018-05-31T17:23:51.713Z,1.73
2018-05-31T17:26:19.279Z,1.60
2018-05-31T17:28:48.534Z,1.50
2018-05-31T17:31:16.351Z,1.57
2018-05-31T17:33:43.918Z,1.20
2018-05-31T17:36:11.492Z,1.50
2018-05-31T17:38:39.648Z,1.20
2018-05-31T17:41:07.637Z,1.80
2018-05-31T17:43:35.188Z,1.57
2018-05-31T17:46:02.768Z,1.80
2018-05-31T17:48:30.370Z,1.37
2018-05-31T17:50:57.948Z,1.83
2018-05-31T17:53:26.015Z,1.40
2018-05-31T17:55:54.662Z,2.73
2018-05-31T17:58:23.878Z,1.30
2018-05-31T18:00:51.415Z,1.87
2018-05-31T18:03:19.040Z,1.40
2018-05-31T18:05:48.166Z,1.70
2018-05-31T18:08:15.711Z,1.60
2018-05-31T18:10:44.171Z,1.83
2018-05-31T18:13:11.742Z,1.83
2018-05-31T18:15:39.698Z,1.33
2018-05-31T18:18:07.230Z,1.80
2018-05-31T18:20:35.311Z,1.93
2018-05-31T18:23:03.639Z,1.20
2018-05-31T18:25:31.177Z,1.90
2018-05-31T18:27:59.300Z,1.50
2018-05-31T18:30:26.860Z,2.80
2018-05-31T18:32:54.483Z,1.20
2018-05-31T18:35:22.058Z,1.77
2018-05-31T18:37:49.746Z,1.53
2018-05-31T18:40:17.867Z,1.70
2018-05-31T18:42:45.441Z,1.30
2018-05-31T18:45:13.043Z,1.60
2018-05-31T18:47:40.648Z,1.43
2018-05-31T18:50:08.267Z,1.67
2018-05-31T18:52:35.825Z,1.73
2018-05-31T18:55:03.830Z,1.60
2018-05-31T18:57:31.421Z,1.70
2018-05-31T18:59:59.035Z,1.50
2018-05-31T19:02:27.440Z,2.67
2018-05-31T19:04:55.904Z,1.47
2018-05-31T19:07:26.310Z,2.17
2018-05-31T19:09:54.648Z,1.57
2018-05-31T19:12:27.707Z,2.03
2018-05-31T19:14:55.861Z,1.97
2018-05-31T19:17:24.444Z,2.10
2018-05-31T19:19:55.978Z,1.37
2018-05-31T19:22:23.572Z,2.27
2018-05-31T19:24:57.835Z,1.70
2018-05-31T19:27:25.409Z,2.23
2018-05-31T19:30:08.638Z,1.60
2018-05-31T19:32:36.224Z,1.60
2018-05-31T19:35:03.884Z,2.17
2018-05-31T19:37:31.490Z,2.20
2018-05-31T19:39:59.678Z,1.70
2018-05-31T19:42:32.784Z,1.90
2018-05-31T19:45:00.357Z,1.67
2018-05-31T19:47:28.001Z,2.10
2018-05-31T19:49:55.573Z,2.00
2018-05-31T19:52:28.912Z,1.87
2018-05-31T19:54:56.838Z,1.73
2018-05-31T19:57:25.552Z,1.93
2018-05-31T19:59:59.367Z,2.03
2018-05-31T20:02:33.311Z,1.73
2018-05-31T20:05:01.620Z,1.70
2018-05-31T20:07:31.023Z,2.70
2018-05-31T20:09:59.496Z,2.17
2018-05-31T20:12:27.124Z,2.00
2018-05-31T20:14:55.721Z,2.20
2018-05-31T20:17:26.348Z,1.90
2018-05-31T20:19:54.106Z,2.43
2018-05-31T20:22:21.750Z,1.50
2018-05-31T20:24:50.518Z,2.20
2018-05-31T20:27:18.208Z,1.67
2018-05-31T20:29:48.927Z,1.80
2018-05-31T20:32:18.307Z,2.10
2018-05-31T20:34:49.646Z,2.17
2018-05-31T20:37:17.460Z,1.80
2018-05-31T20:39:46.504Z,1.80
2018-05-31T20:42:14.195Z,1.90
2018-05-31T20:44:41.844Z,1.90
2018-05-31T20:47:09.730Z,2.53
2018-05-31T20:49:37.378Z,2.00
2018-05-31T20:52:05.136Z,2.60
2018-05-31T20:54:33.252Z,1.80
2018-05-31T20:57:01.046Z,3.90
2018-05-31T20:59:28.946Z,1.50
2018-05-31T21:01:56.648Z,3.67
2018-05-31T21:04:24.902Z,1.80
2018-05-31T21:06:53.322Z,2.27
2018-05-31T21:09:21.721Z,1.77
2018-05-31T21:11:49.570Z,2.00
2018-05-31T21:14:20.688Z,2.30
2018-05-31T21:16:49.781Z,2.40
2018-05-31T21:19:19.047Z,2.00
2018-05-31T21:21:48.899Z,2.00
2018-05-31T21:24:17.500Z,2.50
2018-05-31T21:26:45.456Z,1.70
2018-05-31T21:29:14.426Z,1.97
2018-05-31T21:31:42.062Z,1.70
2018-05-31T21:34:09.836Z,1.70
2018-05-31T21:36:37.863Z,2.40
2018-05-31T21:39:06.483Z,1.57
2018-05-31T21:41:35.054Z,2.97
2018-05-31T21:44:02.619Z,2.10
2018-05-31T21:46:30.263Z,2.63
2018-05-31T21:48:57.897Z,2.23
2018-05-31T21:51:25.536Z,2.57
2018-05-31T21:53:53.374Z,1.50
2018-05-31T21:56:21.225Z,2.73
2018-05-31T21:58:49.055Z,1.90
2018-05-31T22:01:18.943Z,3.10
2018-05-31T22:03:47.568Z,1.70
2018-05-31T22:06:16.726Z,2.17
2018-05-31T22:08:44.309Z,1.73
2018-05-31T22:11:12.574Z,2.13
2018-05-31T22:13:40.229Z,2.00
2018-05-31T22:16:08.541Z,1.90
2018-05-31T22:18:36.850Z,1.93
2018-05-31T22:21:05.289Z,2.00
2018-05-31T22:23:34.609Z,2.40
2018-05-31T22:26:02.150Z,1.90
2018-05-31T22:28:30.297Z,3.27
2018-05-31T22:30:57.861Z,1.80
2018-05-31T22:33:25.418Z,2.60
2018-05-31T22:35:53.261Z,2.00
2018-05-31T22:38:20.810Z,2.27
2018-05-31T22:40:49.402Z,2.10
2018-05-31T22:43:17.680Z,2.63
2018-05-31T22:45:46.424Z,1.97
2018-05-31T22:48:14.053Z,2.80
2018-05-31T22:50:41.596Z,1.93
2018-05-31T22:53:10.066Z,1.90
2018-05-31T22:55:37.618Z,2.00
2018-05-31T22:58:05.189Z,2.10
2018-05-31T23:00:32.797Z,2.53
2018-05-31T23:03:01.453Z,2.00
2018-05-31T23:05:29.994Z,2.60
2018-05-31T23:07:59.242Z,2.40
2018-05-31T23:10:27.416Z,3.23
2018-05-31T23:12:55.008Z,2.13
2018-05-31T23:15:23.293Z,3.67
2018-05-31T23:17:50.940Z,2.03
2018-05-31T23:20:19.217Z,2.23
2018-05-31T23:22:48.441Z,1.87
2018-05-31T23:25:17.125Z,2.47
2018-05-31T23:27:45.765Z,2.10
2018-05-31T23:30:13.345Z,2.30
2018-05-31T23:32:40.939Z,1.90
2018-05-31T23:35:08.598Z,1.93
2018-05-31T23:37:36.179Z,2.43
2018-05-31T23:40:04.552Z,2.30
2018-05-31T23:42:32.112Z,2.37
2018-05-31T23:44:59.670Z,2.00
2018-05-31T23:47:27.244Z,3.37
2018-05-31T23:49:54.948Z,2.37
2018-05-31T23:52:22.767Z,2.67
2018-05-31T23:54:50.347Z,1.73
2018-05-31T23:57:17.955Z,2.93
2018-05-31T23:59:45.706Z,2.20
